Billie H — WCY4992 — position and weather

sailwx.info

Track history (hours):
 
Tides and Currents Weather Stations Pressure Air Temp Water Temp Dewpoint Dewpoint Depression Visibility Wind Speed Wind Dir Waves Ship Positions

Billie H

Owner: BOYER TOWING INC, KETCHIKAN, AK. More information available from US FCC via Universal Licensing System and Coast Guard Vessel Documentation Center.

Last reported at 2016-Sep-27 10:33 UTC. Time now 2016-Sep-28 08:39 UTC.
Position N 47°34' W 122°21'.

Type: Tow > 200 m length. MMSI: 366751770.

Date/timePositionNaut miles runAvg speedWind from/ knotsBaromVisibWave heightAir tempDewpointWater temp
2016-Sep-27 10:33N 47°34' W 122°21'56 5.6
2016-Sep-27 00:33N 48°11' W 123°24'37 9.3
2016-Sep-26 20:33N 48°19' W 124°18'10 9.8
2016-Sep-26 19:33N 48°23' W 124°32'31 6.9
2016-Sep-26 15:07N 47°56' W 124°52'55 8.4
2016-Sep-26 08:33N 47°02' W 124°32'52 8.6
2016-Sep-26 02:33N 46°12' W 124°12'7 7.3
2016-Sep-26 01:34N 46°16' W 124°03'1 0.5
2016-Sep-26 00:33N 46°16' W 124°02'0 0.0
2016-Sep-25 21:34N 46°16' W 124°02'0 0.0
2016-Sep-25 17:33N 46°16' W 124°02'0 0.0
2016-Sep-25 16:34N 46°16' W 124°02'0 0.0
2016-Sep-25 15:33N 46°16' W 124°02'0 0.0
2016-Sep-25 14:33N 46°16' W 124°02'0 0.0
2016-Sep-25 12:34N 46°16' W 124°02'0 0.0
2016-Sep-25 11:34N 46°16' W 124°02'0 0.0
2016-Sep-25 10:34N 46°16' W 124°02'0 0.0
2016-Sep-25 09:33N 46°16' W 124°02'0 0.0
2016-Sep-25 07:34N 46°16' W 124°02'0 0.0
2016-Sep-25 04:34N 46°16' W 124°02'0 0.0
2016-Sep-25 00:33N 46°16' W 124°02'0 0.0
2016-Sep-24 22:33N 46°16' W 124°02'0 0.0
2016-Sep-24 21:33N 46°16' W 124°02'0 0.0
2016-Sep-24 19:33N 46°16' W 124°02'0 0.0
2016-Sep-24 18:33N 46°16' W 124°02'0 0.0
2016-Sep-24 17:33N 46°16' W 124°02'0 0.0
2016-Sep-24 16:33N 46°16' W 124°02'0 0.0
2016-Sep-24 14:33N 46°16' W 124°02'0 0.0
2016-Sep-24 12:33N 46°16' W 124°02'0 0.0
2016-Sep-24 10:33N 46°16' W 124°02'0 0.0
2016-Sep-24 09:33N 46°16' W 124°02'0 0.0
2016-Sep-24 03:34N 46°16' W 124°02'0 0.0
2016-Sep-24 02:33N 46°16' W 124°02'0 0.0
2016-Sep-24 01:33N 46°16' W 124°02'0 0.0
2016-Sep-24 00:33N 46°16' W 124°02'0 0.0
2016-Sep-23 19:34N 46°16' W 124°02'0 0.0
2016-Sep-23 17:34N 46°16' W 124°02'0 0.0
2016-Sep-23 16:33N 46°16' W 124°02'0 0.0
2016-Sep-23 15:34N 46°16' W 124°02'0 0.0
2016-Sep-23 13:34N 46°16' W 124°02'0 0.0
2016-Sep-23 09:33N 46°16' W 124°02'0 0.0
2016-Sep-23 06:33N 46°16' W 124°02'0 0.0
2016-Sep-23 04:33N 46°16' W 124°02'0 0.0
2016-Sep-23 03:33N 46°16' W 124°02'0 0.0
2016-Sep-23 02:33N 46°16' W 124°02'0 0.0
2016-Sep-23 01:33N 46°16' W 124°02'0 0.0
2016-Sep-23 00:33N 46°16' W 124°02'0 0.0
2016-Sep-22 23:33N 46°16' W 124°02'0 0.0
2016-Sep-22 20:33N 46°16' W 124°02'0 0.0
2016-Sep-22 12:33N 46°16' W 124°02'21 2.7
2016-Sep-22 04:33N 46°32' W 124°23'7 7.2
2016-Sep-22 03:33N 46°39' W 124°25'21 6.9
2016-Sep-22 00:33N 46°59' W 124°32'6 6.0
2016-Sep-21 23:34N 47°05' W 124°34'6 6.2
2016-Sep-21 22:33N 47°11' W 124°36'73 5.6
2016-Sep-21 09:33N 48°24' W 124°35'7 6.8
2016-Sep-21 08:33N 48°21' W 124°26'26 8.5
2016-Sep-21 05:33N 48°12' W 123°50'16 7.8
2016-Sep-21 03:33N 48°14' W 123°27'7 6.6
2016-Sep-21 02:33N 48°14' W 123°17'32 3.6
2016-Sep-20 17:33N 48°31' W 122°36'0 0.0
2016-Sep-20 14:33N 48°31' W 122°36'0 0.0
2016-Sep-20 13:33N 48°31' W 122°36'0 0.0
2016-Sep-20 10:33N 48°31' W 122°36'0 0.0
2016-Sep-20 08:33N 48°31' W 122°36'0 0.0
2016-Sep-20 07:33N 48°31' W 122°36'0 0.0
2016-Sep-20 06:33N 48°31' W 122°36'0 0.0
2016-Sep-20 02:33N 48°31' W 122°36'0 0.0
2016-Sep-19 23:33N 48°31' W 122°36'0 0.0
2016-Sep-19 19:33N 48°31' W 122°36'0 0.0
2016-Sep-19 18:33N 48°31' W 122°36'0 0.0
2016-Sep-19 16:33N 48°31' W 122°36'0 0.0
2016-Sep-19 14:33N 48°31' W 122°36'0 0.0
2016-Sep-19 13:33N 48°31' W 122°36'0 0.0
2016-Sep-19 12:33N 48°31' W 122°36'0 0.0
2016-Sep-19 11:33N 48°31' W 122°36'0 0.0
2016-Sep-19 09:33N 48°31' W 122°36'0 0.0
2016-Sep-19 07:33N 48°31' W 122°36'0 0.0
2016-Sep-19 06:33N 48°31' W 122°36'0 0.0
2016-Sep-19 03:33N 48°31' W 122°36'0 0.0
2016-Sep-19 02:33N 48°31' W 122°36'0 0.0
2016-Sep-19 00:33N 48°31' W 122°36'0 0.0
2016-Sep-18 19:33N 48°31' W 122°36'0 0.0
2016-Sep-18 15:33N 48°31' W 122°36'0 0.0
2016-Sep-18 14:33N 48°31' W 122°36'0 0.0
2016-Sep-18 10:33N 48°31' W 122°36'0 0.0
2016-Sep-18 09:33N 48°31' W 122°36'0 0.0
2016-Sep-18 02:33N 48°31' W 122°36'0 0.0
2016-Sep-18 01:33N 48°31' W 122°36'0 0.0
2016-Sep-18 00:33N 48°31' W 122°36'0 0.0
2016-Sep-17 22:33N 48°31' W 122°36'0 0.0
2016-Sep-17 21:33N 48°31' W 122°36'0 0.0
2016-Sep-17 20:33N 48°31' W 122°36'0 0.2
2016-Sep-17 19:16N 48°31' W 122°37'0 0.0
2016-Sep-17 13:33N 48°31' W 122°37'0 0.0
2016-Sep-17 12:33N 48°31' W 122°37'  
Track history (hours):
 
Tides and Currents Weather Stations Pressure Air Temp Water Temp Dewpoint Dewpoint Depression Visibility Wind Speed Wind Dir Waves Ship Positions

Billie H

Owner: BOYER TOWING INC, KETCHIKAN, AK. More information available from US FCC via Universal Licensing System and Coast Guard Vessel Documentation Center.

Last reported at 2016-Sep-27 10:33 UTC. Time now 2016-Sep-28 08:39 UTC.
Position N 47°34' W 122°21'.

Type: Tow > 200 m length. MMSI: 366751770.

Date/timePositionNaut miles runAvg speedWind from/ knotsBaromVisibWave heightAir tempDewpointWater temp
2016-Sep-27 10:33N 47°34' W 122°21'56 5.6
2016-Sep-27 00:33N 48°11' W 123°24'37 9.3
2016-Sep-26 20:33N 48°19' W 124°18'10 9.8
2016-Sep-26 19:33N 48°23' W 124°32'31 6.9
2016-Sep-26 15:07N 47°56' W 124°52'55 8.4
2016-Sep-26 08:33N 47°02' W 124°32'52 8.6
2016-Sep-26 02:33N 46°12' W 124°12'7 7.3
2016-Sep-26 01:34N 46°16' W 124°03'1 0.5
2016-Sep-26 00:33N 46°16' W 124°02'0 0.0
2016-Sep-25 21:34N 46°16' W 124°02'0 0.0
2016-Sep-25 17:33N 46°16' W 124°02'0 0.0
2016-Sep-25 16:34N 46°16' W 124°02'0 0.0
2016-Sep-25 15:33N 46°16' W 124°02'0 0.0
2016-Sep-25 14:33N 46°16' W 124°02'0 0.0
2016-Sep-25 12:34N 46°16' W 124°02'0 0.0
2016-Sep-25 11:34N 46°16' W 124°02'0 0.0
2016-Sep-25 10:34N 46°16' W 124°02'0 0.0
2016-Sep-25 09:33N 46°16' W 124°02'0 0.0
2016-Sep-25 07:34N 46°16' W 124°02'0 0.0
2016-Sep-25 04:34N 46°16' W 124°02'0 0.0
2016-Sep-25 00:33N 46°16' W 124°02'0 0.0
2016-Sep-24 22:33N 46°16' W 124°02'0 0.0
2016-Sep-24 21:33N 46°16' W 124°02'0 0.0
2016-Sep-24 19:33N 46°16' W 124°02'0 0.0
2016-Sep-24 18:33N 46°16' W 124°02'0 0.0
2016-Sep-24 17:33N 46°16' W 124°02'0 0.0
2016-Sep-24 16:33N 46°16' W 124°02'0 0.0
2016-Sep-24 14:33N 46°16' W 124°02'0 0.0
2016-Sep-24 12:33N 46°16' W 124°02'0 0.0
2016-Sep-24 10:33N 46°16' W 124°02'0 0.0
2016-Sep-24 09:33N 46°16' W 124°02'0 0.0
2016-Sep-24 03:34N 46°16' W 124°02'0 0.0
2016-Sep-24 02:33N 46°16' W 124°02'0 0.0
2016-Sep-24 01:33N 46°16' W 124°02'0 0.0
2016-Sep-24 00:33N 46°16' W 124°02'0 0.0
2016-Sep-23 19:34N 46°16' W 124°02'0 0.0
2016-Sep-23 17:34N 46°16' W 124°02'0 0.0
2016-Sep-23 16:33N 46°16' W 124°02'0 0.0
2016-Sep-23 15:34N 46°16' W 124°02'0 0.0
2016-Sep-23 13:34N 46°16' W 124°02'0 0.0
2016-Sep-23 09:33N 46°16' W 124°02'0 0.0
2016-Sep-23 06:33N 46°16' W 124°02'0 0.0
2016-Sep-23 04:33N 46°16' W 124°02'0 0.0
2016-Sep-23 03:33N 46°16' W 124°02'0 0.0
2016-Sep-23 02:33N 46°16' W 124°02'0 0.0
2016-Sep-23 01:33N 46°16' W 124°02'0 0.0
2016-Sep-23 00:33N 46°16' W 124°02'0 0.0
2016-Sep-22 23:33N 46°16' W 124°02'0 0.0
2016-Sep-22 20:33N 46°16' W 124°02'0 0.0
2016-Sep-22 12:33N 46°16' W 124°02'21 2.7
2016-Sep-22 04:33N 46°32' W 124°23'7 7.2
2016-Sep-22 03:33N 46°39' W 124°25'21 6.9
2016-Sep-22 00:33N 46°59' W 124°32'6 6.0
2016-Sep-21 23:34N 47°05' W 124°34'6 6.2
2016-Sep-21 22:33N 47°11' W 124°36'73 5.6
2016-Sep-21 09:33N 48°24' W 124°35'7 6.8
2016-Sep-21 08:33N 48°21' W 124°26'26 8.5
2016-Sep-21 05:33N 48°12' W 123°50'16 7.8
2016-Sep-21 03:33N 48°14' W 123°27'7 6.6
2016-Sep-21 02:33N 48°14' W 123°17'32 3.6
2016-Sep-20 17:33N 48°31' W 122°36'0 0.0
2016-Sep-20 14:33N 48°31' W 122°36'0 0.0
2016-Sep-20 13:33N 48°31' W 122°36'0 0.0
2016-Sep-20 10:33N 48°31' W 122°36'0 0.0
2016-Sep-20 08:33N 48°31' W 122°36'0 0.0
2016-Sep-20 07:33N 48°31' W 122°36'0 0.0
2016-Sep-20 06:33N 48°31' W 122°36'0 0.0
2016-Sep-20 02:33N 48°31' W 122°36'0 0.0
2016-Sep-19 23:33N 48°31' W 122°36'0 0.0
2016-Sep-19 19:33N 48°31' W 122°36'0 0.0
2016-Sep-19 18:33N 48°31' W 122°36'0 0.0
2016-Sep-19 16:33N 48°31' W 122°36'0 0.0
2016-Sep-19 14:33N 48°31' W 122°36'0 0.0
2016-Sep-19 13:33N 48°31' W 122°36'0 0.0
2016-Sep-19 12:33N 48°31' W 122°36'0 0.0
2016-Sep-19 11:33N 48°31' W 122°36'0 0.0
2016-Sep-19 09:33N 48°31' W 122°36'0 0.0
2016-Sep-19 07:33N 48°31' W 122°36'0 0.0
2016-Sep-19 06:33N 48°31' W 122°36'0 0.0
2016-Sep-19 03:33N 48°31' W 122°36'0 0.0
2016-Sep-19 02:33N 48°31' W 122°36'0 0.0
2016-Sep-19 00:33N 48°31' W 122°36'0 0.0
2016-Sep-18 19:33N 48°31' W 122°36'0 0.0
2016-Sep-18 15:33N 48°31' W 122°36'0 0.0
2016-Sep-18 14:33N 48°31' W 122°36'0 0.0
2016-Sep-18 10:33N 48°31' W 122°36'0 0.0
2016-Sep-18 09:33N 48°31' W 122°36'0 0.0
2016-Sep-18 02:33N 48°31' W 122°36'0 0.0
2016-Sep-18 01:33N 48°31' W 122°36'0 0.0
2016-Sep-18 00:33N 48°31' W 122°36'0 0.0
2016-Sep-17 22:33N 48°31' W 122°36'0 0.0
2016-Sep-17 21:33N 48°31' W 122°36'0 0.0
2016-Sep-17 20:33N 48°31' W 122°36'0 0.2
2016-Sep-17 19:16N 48°31' W 122°37'0 0.0
2016-Sep-17 13:33N 48°31' W 122°37'0 0.0
2016-Sep-17 12:33N 48°31' W 122°37'  

Dump ship's entire track history